createdAt,value
2019-01-27T00:00:53.532Z,977.45
2019-01-27T00:01:53.516Z,977.40
2019-01-27T00:02:53.501Z,977.43
2019-01-27T00:03:53.487Z,977.39
2019-01-27T00:04:53.473Z,977.35
2019-01-27T00:05:53.457Z,977.26
2019-01-27T00:06:53.443Z,977.33
2019-01-27T00:07:53.428Z,977.28
2019-01-27T00:08:53.417Z,977.43
2019-01-27T00:09:53.398Z,977.11
2019-01-27T00:10:53.383Z,977.27
2019-01-27T00:11:53.369Z,977.23
2019-01-27T00:12:53.355Z,977.20
2019-01-27T00:13:53.339Z,977.16
2019-01-27T00:14:53.326Z,977.18
2019-01-27T00:15:53.309Z,977.16
2019-01-27T00:16:53.294Z,977.11
2019-01-27T00:17:53.278Z,977.10
2019-01-27T00:18:53.264Z,977.12
2019-01-27T00:19:53.249Z,977.08
2019-01-27T00:20:53.234Z,976.99
2019-01-27T00:21:53.220Z,977.05
2019-01-27T00:22:53.204Z,976.94
2019-01-27T00:23:53.190Z,977.05
2019-01-27T00:24:53.175Z,976.98
2019-01-27T00:25:53.160Z,976.95
2019-01-27T00:26:53.148Z,976.87
2019-01-27T00:27:53.135Z,976.88
2019-01-27T00:28:53.116Z,976.84
2019-01-27T00:29:53.100Z,976.83
2019-01-27T00:30:53.086Z,976.84
2019-01-27T00:31:53.071Z,976.87
2019-01-27T00:32:53.056Z,976.85
2019-01-27T00:33:53.042Z,976.71
2019-01-27T00:34:53.026Z,976.79
2019-01-27T00:35:53.012Z,976.66
2019-01-27T00:36:52.998Z,976.68
2019-01-27T00:37:52.982Z,976.62
2019-01-27T00:38:52.968Z,976.68
2019-01-27T00:39:52.955Z,976.59
2019-01-27T00:40:52.938Z,976.59
2019-01-27T00:41:52.923Z,976.59
2019-01-27T00:42:52.908Z,976.59
2019-01-27T00:43:52.895Z,976.52
2019-01-27T00:44:52.879Z,976.53
2019-01-27T00:45:52.864Z,976.53
2019-01-27T00:46:52.850Z,976.49
2019-01-27T00:47:52.834Z,976.46
2019-01-27T00:48:52.820Z,976.49
2019-01-27T00:49:52.807Z,976.47
2019-01-27T00:50:52.790Z,976.42
2019-01-27T00:51:52.775Z,976.35
2019-01-27T00:52:52.762Z,976.42
2019-01-27T00:53:52.744Z,976.34
2019-01-27T00:54:52.731Z,976.39
2019-01-27T00:55:52.715Z,976.37
2019-01-27T00:56:52.703Z,976.31
2019-01-27T00:57:52.685Z,976.34
2019-01-27T00:58:52.672Z,976.25
2019-01-27T00:59:52.656Z,976.26
2019-01-27T01:00:52.640Z,976.28
2019-01-27T01:01:52.625Z,976.13
2019-01-27T01:02:52.610Z,976.14
2019-01-27T01:03:52.595Z,976.22
2019-01-27T01:04:52.581Z,976.08
2019-01-27T01:05:52.565Z,975.92
2019-01-27T01:06:52.550Z,976.03
2019-01-27T01:07:52.537Z,975.97
2019-01-27T01:08:52.519Z,975.91
2019-01-27T01:09:52.503Z,975.97
2019-01-27T01:10:52.488Z,975.93
2019-01-27T01:11:53.468Z,975.95
2019-01-27T01:12:52.460Z,975.93
2019-01-27T01:13:52.444Z,975.95
2019-01-27T01:14:52.428Z,975.86
2019-01-27T01:15:52.414Z,975.85
2019-01-27T01:16:52.399Z,975.80
2019-01-27T01:17:52.384Z,975.86
2019-01-27T01:18:52.368Z,975.79
2019-01-27T01:19:52.360Z,975.83
2019-01-27T01:20:52.338Z,975.76
2019-01-27T01:21:52.325Z,975.73
2019-01-27T01:22:52.308Z,975.65
2019-01-27T01:23:52.303Z,975.62
2019-01-27T01:24:52.279Z,975.58
2019-01-27T01:25:52.263Z,975.54
2019-01-27T01:26:52.248Z,975.57
2019-01-27T01:27:52.234Z,975.47
2019-01-27T01:28:52.219Z,975.57
2019-01-27T01:29:52.204Z,975.38
2019-01-27T01:30:52.190Z,975.45
2019-01-27T01:31:52.174Z,975.40
2019-01-27T01:32:52.161Z,975.37
2019-01-27T01:33:52.144Z,975.30
2019-01-27T01:34:52.130Z,975.27
2019-01-27T01:35:52.115Z,975.20
2019-01-27T01:36:52.101Z,975.26
2019-01-27T01:37:52.086Z,975.24
2019-01-27T01:38:52.070Z,975.19
2019-01-27T01:39:52.056Z,975.19
2019-01-27T01:40:52.043Z,975.21
2019-01-27T01:41:52.027Z,975.16
2019-01-27T01:42:52.011Z,975.21
2019-01-27T01:43:51.997Z,975.28
2019-01-27T01:44:51.982Z,975.08
2019-01-27T01:45:51.968Z,975.06
2019-01-27T01:46:51.954Z,975.01
2019-01-27T01:47:51.938Z,975.09
2019-01-27T01:48:51.925Z,974.96
2019-01-27T01:49:51.909Z,975.01
2019-01-27T01:50:51.894Z,975.06
2019-01-27T01:51:51.881Z,975.07
2019-01-27T01:52:51.866Z,974.98
2019-01-27T01:53:51.850Z,974.95
2019-01-27T01:54:51.836Z,974.94
2019-01-27T01:55:51.822Z,975.09
2019-01-27T01:56:51.807Z,974.98
2019-01-27T01:57:51.792Z,974.93
2019-01-27T01:58:51.779Z,974.95
2019-01-27T01:59:51.765Z,974.88
2019-01-27T02:00:51.750Z,974.96
2019-01-27T02:01:51.738Z,974.86
2019-01-27T02:02:51.720Z,974.86
2019-01-27T02:03:51.706Z,974.78
2019-01-27T02:04:51.694Z,974.90
2019-01-27T02:05:51.677Z,974.79
2019-01-27T02:06:51.663Z,974.79
2019-01-27T02:07:51.648Z,974.86
2019-01-27T02:08:51.634Z,974.75
2019-01-27T02:09:51.618Z,974.79
2019-01-27T02:10:51.604Z,974.61
2019-01-27T02:11:51.592Z,974.69
2019-01-27T02:12:51.577Z,974.63
2019-01-27T02:13:51.562Z,974.57
2019-01-27T02:14:51.547Z,974.49
2019-01-27T02:15:51.533Z,974.50
2019-01-27T02:16:51.522Z,974.55
2019-01-27T02:17:51.503Z,974.52
2019-01-27T02:18:51.489Z,974.49
2019-01-27T02:19:51.474Z,974.47
2019-01-27T02:20:51.460Z,974.44
2019-01-27T02:21:51.446Z,974.44
2019-01-27T02:22:51.431Z,974.46
2019-01-27T02:23:51.417Z,974.34
2019-01-27T02:24:51.402Z,974.36
2019-01-27T02:25:51.388Z,974.35
2019-01-27T02:26:51.373Z,974.39
2019-01-27T02:27:51.359Z,974.20
2019-01-27T02:28:51.347Z,974.18
2019-01-27T02:29:51.329Z,974.25
2019-01-27T02:30:51.315Z,974.09
2019-01-27T02:31:51.301Z,974.24
2019-01-27T02:32:51.287Z,974.17
2019-01-27T02:33:51.272Z,974.17
2019-01-27T02:34:51.260Z,974.23
2019-01-27T02:35:51.244Z,974.24
2019-01-27T02:36:51.229Z,974.08
2019-01-27T02:37:51.215Z,973.96
2019-01-27T02:38:51.200Z,973.89
2019-01-27T02:39:51.188Z,973.83
2019-01-27T02:40:51.172Z,974.09
2019-01-27T02:41:51.157Z,974.16
2019-01-27T02:42:51.143Z,974.08
2019-01-27T02:43:51.130Z,974.06
2019-01-27T02:44:51.114Z,974.07
2019-01-27T02:45:51.101Z,973.95
2019-01-27T02:46:51.087Z,974.00
2019-01-27T02:47:51.073Z,973.95
2019-01-27T02:48:51.058Z,974.01
2019-01-27T02:49:51.043Z,973.87
2019-01-27T02:50:51.029Z,973.82
2019-01-27T02:51:51.015Z,973.83
2019-01-27T02:52:51.002Z,973.83
2019-01-27T02:53:50.987Z,973.85
2019-01-27T02:54:50.972Z,973.77
2019-01-27T02:55:50.966Z,973.71
2019-01-27T02:56:50.945Z,973.83
2019-01-27T02:57:50.930Z,973.78
2019-01-27T02:58:50.917Z,973.78
2019-01-27T02:59:50.903Z,973.74
2019-01-27T03:00:50.888Z,973.72
2019-01-27T03:01:50.873Z,973.74
2019-01-27T03:02:50.859Z,973.67
2019-01-27T03:03:50.846Z,973.67
2019-01-27T03:04:50.831Z,973.43
2019-01-27T03:05:50.817Z,973.59
2019-01-27T03:06:50.805Z,973.56
2019-01-27T03:07:50.789Z,973.43
2019-01-27T03:08:50.774Z,973.39
2019-01-27T03:09:50.759Z,973.57
2019-01-27T03:10:50.747Z,973.46
2019-01-27T03:11:50.760Z,973.43
2019-01-27T03:12:50.720Z,973.47
2019-01-27T03:13:50.703Z,973.45
2019-01-27T03:14:50.694Z,973.37
2019-01-27T03:15:50.676Z,973.40
2019-01-27T03:16:50.668Z,973.32
2019-01-27T03:17:50.649Z,973.34
2019-01-27T03:18:50.634Z,973.45
2019-01-27T03:19:50.619Z,973.35
2019-01-27T03:20:50.605Z,973.27
2019-01-27T03:21:50.594Z,973.30
2019-01-27T03:22:50.576Z,973.22
2019-01-27T03:23:50.564Z,973.26
2019-01-27T03:24:50.552Z,973.23
2019-01-27T03:25:50.535Z,973.25
2019-01-27T03:26:50.521Z,973.22
2019-01-27T03:27:50.507Z,973.18
2019-01-27T03:28:50.492Z,973.27
2019-01-27T03:29:50.479Z,973.21
2019-01-27T03:30:50.485Z,973.20
2019-01-27T03:31:50.577Z,973.20
2019-01-27T03:32:50.434Z,973.27
2019-01-27T03:33:50.418Z,973.19
2019-01-27T03:34:50.403Z,973.18
2019-01-27T03:35:50.389Z,973.17
2019-01-27T03:36:50.374Z,973.16
2019-01-27T03:37:50.358Z,973.17
2019-01-27T03:38:50.344Z,973.11
2019-01-27T03:39:50.329Z,973.07
2019-01-27T03:40:50.316Z,973.03
2019-01-27T03:41:50.301Z,973.06
2019-01-27T03:42:50.284Z,973.04
2019-01-27T03:43:50.272Z,973.00
2019-01-27T03:44:50.256Z,972.99
2019-01-27T03:45:50.240Z,973.02
2019-01-27T03:46:50.225Z,972.93
2019-01-27T03:47:50.210Z,972.97
2019-01-27T03:48:50.197Z,972.99
2019-01-27T03:49:50.186Z,972.98
2019-01-27T03:50:50.165Z,972.94
2019-01-27T03:51:50.151Z,972.91
2019-01-27T03:52:50.136Z,972.96
2019-01-27T03:53:50.121Z,973.02
2019-01-27T03:54:50.106Z,972.99
2019-01-27T03:55:50.091Z,972.88
2019-01-27T03:56:50.078Z,972.87
2019-01-27T03:57:50.069Z,972.74
2019-01-27T03:58:50.047Z,972.69
2019-01-27T03:59:50.032Z,972.73
2019-01-27T04:00:50.030Z,972.58
2019-01-27T04:01:50.004Z,972.53
2019-01-27T04:02:50.014Z,972.54
2019-01-27T04:03:49.972Z,972.56
2019-01-27T04:04:49.957Z,972.48
2019-01-27T04:05:49.942Z,972.42
2019-01-27T04:06:49.927Z,972.41
2019-01-27T04:07:49.911Z,972.42
2019-01-27T04:08:49.898Z,972.42
2019-01-27T04:09:49.880Z,972.45
2019-01-27T04:10:49.865Z,972.35
2019-01-27T04:11:49.853Z,972.29
2019-01-27T04:12:49.836Z,972.22
2019-01-27T04:13:49.819Z,972.18
2019-01-27T04:14:49.806Z,972.29
2019-01-27T04:15:49.788Z,972.31
2019-01-27T04:16:49.781Z,972.16
2019-01-27T04:17:49.757Z,972.17
2019-01-27T04:18:49.745Z,972.19
2019-01-27T04:19:49.726Z,972.22
2019-01-27T04:20:49.716Z,972.11
2019-01-27T04:21:49.702Z,972.08
2019-01-27T04:22:49.680Z,972.14
2019-01-27T04:23:49.669Z,972.09
2019-01-27T04:24:49.650Z,972.17
2019-01-27T04:25:49.634Z,972.16
2019-01-27T04:26:49.620Z,972.23
2019-01-27T04:27:49.606Z,972.22
2019-01-27T04:28:49.589Z,972.29
2019-01-27T04:29:49.573Z,972.23
2019-01-27T04:30:49.558Z,972.10
2019-01-27T04:31:49.542Z,972.12
2019-01-27T04:32:49.528Z,972.11
2019-01-27T04:33:49.511Z,972.08
2019-01-27T04:34:49.497Z,972.06
2019-01-27T04:35:49.482Z,972.09
2019-01-27T04:36:49.466Z,972.02
2019-01-27T04:37:49.450Z,972.00
2019-01-27T04:38:49.435Z,971.95
2019-01-27T04:39:49.420Z,971.96
2019-01-27T04:40:49.406Z,971.88
2019-01-27T04:41:49.389Z,971.88
2019-01-27T04:42:49.374Z,971.86
2019-01-27T04:43:49.359Z,971.86
2019-01-27T04:44:49.351Z,971.81
2019-01-27T04:45:49.342Z,971.72
2019-01-27T04:46:49.317Z,971.71
2019-01-27T04:47:49.306Z,971.73
2019-01-27T04:48:49.285Z,971.70
2019-01-27T04:49:49.274Z,971.73
2019-01-27T04:50:49.254Z,971.70
2019-01-27T04:51:49.240Z,971.73
2019-01-27T04:52:49.226Z,971.71
2019-01-27T04:53:49.208Z,971.71
2019-01-27T04:54:49.194Z,971.64
2019-01-27T04:55:49.179Z,971.71
2019-01-27T04:56:49.164Z,971.77
2019-01-27T04:57:49.150Z,971.60
2019-01-27T04:58:49.134Z,971.63
2019-01-27T04:59:49.119Z,971.59
2019-01-27T05:00:49.105Z,971.61
2019-01-27T05:01:49.099Z,971.53
2019-01-27T05:02:49.076Z,971.55
2019-01-27T05:03:49.059Z,971.50
2019-01-27T05:04:49.045Z,971.50
2019-01-27T05:05:49.032Z,971.48
2019-01-27T05:06:49.015Z,971.48
2019-01-27T05:07:49.001Z,971.50
2019-01-27T05:08:48.986Z,971.50
2019-01-27T05:09:48.970Z,971.52
2019-01-27T05:10:48.956Z,971.50
2019-01-27T05:11:48.946Z,971.48
2019-01-27T05:12:48.930Z,971.52
2019-01-27T05:13:48.914Z,971.51
2019-01-27T05:14:48.897Z,971.47
2019-01-27T05:15:48.883Z,971.37
2019-01-27T05:16:48.868Z,971.50
2019-01-27T05:17:48.853Z,971.54
2019-01-27T05:18:48.838Z,971.34
2019-01-27T05:19:48.824Z,971.40
2019-01-27T05:20:48.811Z,971.43
2019-01-27T05:21:48.795Z,971.59
2019-01-27T05:22:48.779Z,971.47
2019-01-27T05:23:48.765Z,971.43
2019-01-27T05:24:48.753Z,971.52
2019-01-27T05:25:48.734Z,971.49
2019-01-27T05:26:48.720Z,971.47
2019-01-27T05:27:48.707Z,971.52
2019-01-27T05:28:48.690Z,971.63
2019-01-27T05:29:48.675Z,971.53
2019-01-27T05:30:48.660Z,971.50
2019-01-27T05:31:48.646Z,971.59
2019-01-27T05:32:48.672Z,971.50
2019-01-27T05:33:48.615Z,971.53
2019-01-27T05:34:48.599Z,971.51
2019-01-27T05:35:48.583Z,971.49
2019-01-27T05:36:48.569Z,971.50
2019-01-27T05:37:48.553Z,971.53
2019-01-27T05:38:48.539Z,971.52
2019-01-27T05:39:48.523Z,971.50
2019-01-27T05:40:48.508Z,971.45
2019-01-27T05:41:48.492Z,971.46
2019-01-27T05:42:48.478Z,971.40
2019-01-27T05:43:48.462Z,971.49
2019-01-27T05:44:48.446Z,971.42
2019-01-27T05:45:48.430Z,971.40
2019-01-27T05:46:48.416Z,971.45
2019-01-27T05:47:48.409Z,971.36
2019-01-27T05:48:48.426Z,971.30
2019-01-27T05:49:48.371Z,971.32
2019-01-27T05:50:48.355Z,971.22
2019-01-27T05:51:48.344Z,971.16
2019-01-27T05:52:48.335Z,971.23
2019-01-27T05:53:48.310Z,971.22
2019-01-27T05:54:48.296Z,971.15
2019-01-27T05:55:48.279Z,971.05
2019-01-27T05:56:48.263Z,971.07
2019-01-27T05:57:48.251Z,971.08
2019-01-27T05:58:48.235Z,971.02
2019-01-27T05:59:48.216Z,971.04
2019-01-27T06:00:48.201Z,971.01
2019-01-27T06:01:48.186Z,970.96
2019-01-27T06:02:48.172Z,970.98
2019-01-27T06:03:48.154Z,970.96
2019-01-27T06:04:48.139Z,970.98
2019-01-27T06:05:48.131Z,970.97
2019-01-27T06:06:48.108Z,971.00
2019-01-27T06:07:48.097Z,970.94
2019-01-27T06:08:48.078Z,970.95
2019-01-27T06:09:48.064Z,970.89
2019-01-27T06:10:48.046Z,970.98
2019-01-27T06:11:48.031Z,970.95
2019-01-27T06:12:48.015Z,970.94
2019-01-27T06:13:48.001Z,971.02
2019-01-27T06:14:47.985Z,971.03
2019-01-27T06:15:47.968Z,971.03
2019-01-27T06:16:47.959Z,971.07
2019-01-27T06:17:47.941Z,971.10
2019-01-27T06:18:47.923Z,971.12
2019-01-27T06:19:47.908Z,970.96
2019-01-27T06:20:47.892Z,970.92
2019-01-27T06:21:47.875Z,970.83
2019-01-27T06:22:47.860Z,970.82
2019-01-27T06:23:47.845Z,970.83
2019-01-27T06:24:47.830Z,970.78
2019-01-27T06:25:47.817Z,970.79
2019-01-27T06:26:47.802Z,970.75
2019-01-27T06:27:47.786Z,970.80
2019-01-27T06:28:47.767Z,970.77
2019-01-27T06:29:47.756Z,970.80
2019-01-27T06:30:47.735Z,970.78
2019-01-27T06:31:47.721Z,970.84
2019-01-27T06:32:47.707Z,970.77
2019-01-27T06:33:47.693Z,970.74
2019-01-27T06:34:47.674Z,970.77
2019-01-27T06:35:47.659Z,970.61
2019-01-27T06:36:47.644Z,970.70
2019-01-27T06:37:47.628Z,970.65
2019-01-27T06:38:47.613Z,970.67
2019-01-27T06:39:47.597Z,970.61
2019-01-27T06:40:47.588Z,970.57
2019-01-27T06:41:47.566Z,970.54
2019-01-27T06:42:47.552Z,970.56
2019-01-27T06:43:47.536Z,970.55
2019-01-27T06:44:47.522Z,970.57
2019-01-27T06:45:47.505Z,970.55
2019-01-27T06:46:47.490Z,970.53
2019-01-27T06:47:47.476Z,970.46
2019-01-27T06:48:47.460Z,970.46
2019-01-27T06:49:47.445Z,970.54
2019-01-27T06:50:47.430Z,970.54
2019-01-27T06:51:47.416Z,970.53
2019-01-27T06:52:47.402Z,970.53
2019-01-27T06:53:47.385Z,970.46
2019-01-27T06:54:47.370Z,970.43
2019-01-27T06:55:47.355Z,970.39
2019-01-27T06:56:47.343Z,970.38
2019-01-27T06:57:47.326Z,970.44
2019-01-27T06:58:47.310Z,970.39
2019-01-27T06:59:47.295Z,970.38
2019-01-27T07:00:47.281Z,970.42
2019-01-27T07:01:47.264Z,970.38
2019-01-27T07:02:47.250Z,970.33
2019-01-27T07:03:47.236Z,970.38
2019-01-27T07:04:47.220Z,970.36
2019-01-27T07:05:47.205Z,970.45
2019-01-27T07:06:47.191Z,970.32
2019-01-27T07:07:47.175Z,970.32
2019-01-27T07:08:47.161Z,970.36
2019-01-27T07:09:47.144Z,970.35
2019-01-27T07:10:47.130Z,970.32
2019-01-27T07:11:47.115Z,970.36
2019-01-27T07:12:47.101Z,970.36
2019-01-27T07:13:47.084Z,970.33
2019-01-27T07:14:47.070Z,970.29
2019-01-27T07:15:47.055Z,970.30
2019-01-27T07:16:47.043Z,970.22
2019-01-27T07:17:47.026Z,970.26
2019-01-27T07:18:47.015Z,970.14
2019-01-27T07:19:46.996Z,970.24
2019-01-27T07:20:46.981Z,970.21
2019-01-27T07:21:46.964Z,970.08
2019-01-27T07:22:46.949Z,970.07
2019-01-27T07:23:46.935Z,970.06
2019-01-27T07:24:46.920Z,970.08
2019-01-27T07:25:46.904Z,970.11
2019-01-27T07:26:46.892Z,970.10
2019-01-27T07:27:46.875Z,970.15
2019-01-27T07:28:46.860Z,970.12
2019-01-27T07:29:46.892Z,970.16
2019-01-27T07:30:46.830Z,970.20
2019-01-27T07:31:46.815Z,970.16
2019-01-27T07:32:46.807Z,970.18
2019-01-27T07:33:46.788Z,970.20
2019-01-27T07:34:46.777Z,970.14
2019-01-27T07:35:46.757Z,970.12
2019-01-27T07:36:46.741Z,970.18
2019-01-27T07:37:46.729Z,970.13
2019-01-27T07:38:46.711Z,970.11
2019-01-27T07:39:46.697Z,970.16
2019-01-27T07:40:46.683Z,970.07
2019-01-27T07:41:46.667Z,970.14
2019-01-27T07:42:46.653Z,970.11
2019-01-27T07:43:46.639Z,970.03
2019-01-27T07:44:46.625Z,970.06
2019-01-27T07:45:46.609Z,970.03
2019-01-27T07:46:46.595Z,970.03
2019-01-27T07:47:46.581Z,970.05
2019-01-27T07:48:46.567Z,970.07
2019-01-27T07:49:46.551Z,970.00
2019-01-27T07:50:46.539Z,970.01
2019-01-27T07:51:46.524Z,969.95
2019-01-27T07:52:46.513Z,970.01
2019-01-27T07:53:46.494Z,970.02
2019-01-27T07:54:46.480Z,970.00
2019-01-27T07:55:46.492Z,969.96
2019-01-27T07:56:46.455Z,970.03
2019-01-27T07:57:46.439Z,970.02
2019-01-27T07:58:46.423Z,970.02
2019-01-27T07:59:46.410Z,969.92
2019-01-27T08:00:46.396Z,969.92
2019-01-27T08:01:46.381Z,969.95
2019-01-27T08:02:46.367Z,969.96
2019-01-27T08:03:46.353Z,969.91
2019-01-27T08:04:46.340Z,969.87
2019-01-27T08:05:46.325Z,969.94
2019-01-27T08:06:46.311Z,969.86
2019-01-27T08:07:46.297Z,969.95
2019-01-27T08:08:46.283Z,969.90
2019-01-27T08:09:46.270Z,969.92
2019-01-27T08:10:46.255Z,969.91
2019-01-27T08:11:46.240Z,969.92
2019-01-27T08:12:46.227Z,969.86
2019-01-27T08:13:46.212Z,969.92
2019-01-27T08:14:46.198Z,969.85
2019-01-27T08:15:46.188Z,969.86
2019-01-27T08:16:46.170Z,969.96
2019-01-27T08:17:46.157Z,969.90
2019-01-27T08:18:46.142Z,969.87
2019-01-27T08:19:46.128Z,969.83
2019-01-27T08:20:46.114Z,969.81
2019-01-27T08:21:46.099Z,969.86
2019-01-27T08:22:46.085Z,969.86
2019-01-27T08:23:46.071Z,969.79
2019-01-27T08:24:46.057Z,969.82
2019-01-27T08:25:46.042Z,969.85
2019-01-27T08:26:46.030Z,969.89
2019-01-27T08:27:46.017Z,969.88
2019-01-27T08:28:46.003Z,969.90
2019-01-27T08:29:45.986Z,969.90
2019-01-27T08:30:45.972Z,969.90
2019-01-27T08:31:45.958Z,969.92
2019-01-27T08:32:45.944Z,969.88
2019-01-27T08:33:45.930Z,969.88
2019-01-27T08:34:45.916Z,969.86
2019-01-27T08:35:45.901Z,969.90
2019-01-27T08:36:45.888Z,969.84
2019-01-27T08:37:45.873Z,969.85
2019-01-27T08:38:45.859Z,969.84
2019-01-27T08:39:45.846Z,969.84
2019-01-27T08:40:45.831Z,969.85
2019-01-27T08:41:45.817Z,969.81
2019-01-27T08:42:45.802Z,969.80
2019-01-27T08:43:45.788Z,969.80
2019-01-27T08:44:45.775Z,969.77
2019-01-27T08:45:45.760Z,969.81
2019-01-27T08:46:45.746Z,969.81
2019-01-27T08:47:45.732Z,969.74
2019-01-27T08:48:45.720Z,969.77
2019-01-27T08:49:45.705Z,969.76
2019-01-27T08:50:45.689Z,969.78
2019-01-27T08:51:45.677Z,969.78
2019-01-27T08:52:45.662Z,969.89
2019-01-27T08:53:45.653Z,969.80
2019-01-27T08:54:45.634Z,969.84
2019-01-27T08:55:45.622Z,969.81
2019-01-27T08:56:45.606Z,969.74
2019-01-27T08:57:45.592Z,969.71
2019-01-27T08:58:45.609Z,969.77
2019-01-27T08:59:45.565Z,969.77
2019-01-27T09:00:45.550Z,969.75
2019-01-27T09:01:45.536Z,969.71
2019-01-27T09:02:45.529Z,969.73
2019-01-27T09:03:45.509Z,969.73
2019-01-27T09:04:45.495Z,969.74
2019-01-27T09:05:45.480Z,969.67
2019-01-27T09:06:45.467Z,969.73
2019-01-27T09:07:45.454Z,969.67
2019-01-27T09:08:45.438Z,969.63
2019-01-27T09:09:45.425Z,969.61
2019-01-27T09:10:45.410Z,969.70
2019-01-27T09:11:45.396Z,969.70
2019-01-27T09:12:45.383Z,969.65
2019-01-27T09:13:45.368Z,969.72
2019-01-27T09:14:45.354Z,969.61
2019-01-27T09:15:45.341Z,969.71
2019-01-27T09:16:45.335Z,969.71
2019-01-27T09:17:45.315Z,969.73
2019-01-27T09:18:45.303Z,969.71
2019-01-27T09:19:45.286Z,969.71
2019-01-27T09:20:45.275Z,969.65
2019-01-27T09:21:45.258Z,969.64
2019-01-27T09:22:45.245Z,969.70
2019-01-27T09:23:45.232Z,969.66
2019-01-27T09:24:45.218Z,969.64
2019-01-27T09:25:45.204Z,969.68
2019-01-27T09:26:45.190Z,969.65
2019-01-27T09:27:45.176Z,969.63
2019-01-27T09:28:45.163Z,969.62
2019-01-27T09:29:45.150Z,969.55
2019-01-27T09:30:45.135Z,969.57
2019-01-27T09:31:45.121Z,969.63
2019-01-27T09:32:45.111Z,969.67
2019-01-27T09:33:45.093Z,969.72
2019-01-27T09:34:45.079Z,969.67
2019-01-27T09:35:45.067Z,969.73
2019-01-27T09:36:45.053Z,969.59
2019-01-27T09:37:45.039Z,969.69
2019-01-27T09:38:45.025Z,969.61
2019-01-27T09:39:45.010Z,969.67
2019-01-27T09:40:44.997Z,969.65
2019-01-27T09:41:44.983Z,969.62
2019-01-27T09:42:44.969Z,969.61
2019-01-27T09:43:44.958Z,969.64
2019-01-27T09:44:44.942Z,969.56
2019-01-27T09:45:57.873Z,969.73
2019-01-27T09:46:44.914Z,969.68
2019-01-27T09:47:44.902Z,969.59
2019-01-27T09:48:44.887Z,969.67
2019-01-27T09:49:44.872Z,969.52
2019-01-27T09:50:44.861Z,969.64
2019-01-27T09:51:44.851Z,969.57
2019-01-27T09:52:44.832Z,969.74
2019-01-27T09:53:44.818Z,969.64
2019-01-27T09:54:44.804Z,969.63
2019-01-27T09:55:44.793Z,969.62
2019-01-27T09:56:44.784Z,969.56
2019-01-27T09:57:44.763Z,969.71
2019-01-27T09:58:44.749Z,969.63
2019-01-27T09:59:44.738Z,969.62
2019-01-27T10:00:44.725Z,969.58
2019-01-27T10:01:44.707Z,969.67
2019-01-27T10:02:44.693Z,969.65
2019-01-27T10:03:44.680Z,969.66
2019-01-27T10:04:44.666Z,969.61
2019-01-27T10:05:44.653Z,969.66
2019-01-27T10:06:44.640Z,969.60
2019-01-27T10:07:44.625Z,969.66
2019-01-27T10:08:44.611Z,969.58
2019-01-27T10:09:44.597Z,969.71
2019-01-27T10:10:44.584Z,969.63
2019-01-27T10:11:44.568Z,969.66
2019-01-27T10:12:44.556Z,969.65
2019-01-27T10:13:44.541Z,969.67
2019-01-27T10:14:44.527Z,969.60
2019-01-27T10:15:44.513Z,969.67
2019-01-27T10:16:44.501Z,969.67
2019-01-27T10:17:44.485Z,969.65
2019-01-27T10:18:44.471Z,969.67
2019-01-27T10:19:44.457Z,969.59
2019-01-27T10:20:44.444Z,969.71
2019-01-27T10:21:44.430Z,969.64
2019-01-27T10:22:44.415Z,969.55
2019-01-27T10:23:44.402Z,969.65
2019-01-27T10:24:44.388Z,969.65
2019-01-27T10:25:44.373Z,969.65
2019-01-27T10:26:44.359Z,969.54
2019-01-27T10:27:44.344Z,969.67
2019-01-27T10:28:44.331Z,969.66
2019-01-27T10:29:44.315Z,969.63
2019-01-27T10:30:44.301Z,969.67
2019-01-27T10:31:44.289Z,969.63
2019-01-27T10:32:44.272Z,969.64
2019-01-27T10:33:44.256Z,969.74
2019-01-27T10:34:44.243Z,969.74
2019-01-27T10:35:44.229Z,969.72
2019-01-27T10:36:44.218Z,969.74
2019-01-27T10:37:44.201Z,969.74
2019-01-27T10:38:44.184Z,969.69
2019-01-27T10:39:44.170Z,969.68
2019-01-27T10:40:44.154Z,969.64
2019-01-27T10:41:44.139Z,969.66
2019-01-27T10:42:44.123Z,969.65
2019-01-27T10:43:44.111Z,969.63
2019-01-27T10:44:44.094Z,969.67
2019-01-27T10:45:44.078Z,969.63
2019-01-27T10:46:44.064Z,969.68
2019-01-27T10:47:44.049Z,969.58
2019-01-27T10:48:44.035Z,969.64
2019-01-27T10:49:44.018Z,969.58
2019-01-27T10:50:44.005Z,969.56
2019-01-27T10:51:43.989Z,969.57
2019-01-27T10:52:43.974Z,969.58
2019-01-27T10:53:43.961Z,969.57
2019-01-27T10:54:43.943Z,969.63
2019-01-27T10:55:43.929Z,969.58
2019-01-27T10:56:43.914Z,969.60
2019-01-27T10:57:43.899Z,969.57
2019-01-27T10:58:43.883Z,969.59
2019-01-27T10:59:43.869Z,969.51
2019-01-27T11:00:43.854Z,969.55
2019-01-27T11:01:43.840Z,969.53
2019-01-27T11:02:43.824Z,969.52
2019-01-27T11:03:43.809Z,969.55
2019-01-27T11:04:43.794Z,969.51
2019-01-27T11:05:43.778Z,969.49
2019-01-27T11:06:43.764Z,969.44
2019-01-27T11:07:43.755Z,969.43
2019-01-27T11:08:43.734Z,969.37
2019-01-27T11:09:43.719Z,969.43
2019-01-27T11:10:43.705Z,969.40
2019-01-27T11:11:43.691Z,969.35
2019-01-27T11:12:43.677Z,969.40
2019-01-27T11:13:43.660Z,969.36
2019-01-27T11:14:43.646Z,969.36
2019-01-27T11:15:43.633Z,969.38
2019-01-27T11:16:43.618Z,969.34
2019-01-27T11:17:43.603Z,969.33
2019-01-27T11:18:43.588Z,969.33
2019-01-27T11:19:43.574Z,969.34
2019-01-27T11:20:43.559Z,969.33
2019-01-27T11:21:43.544Z,969.31
2019-01-27T11:22:43.749Z,969.27
2019-01-27T11:23:43.517Z,969.37
2019-01-27T11:24:43.502Z,969.31
2019-01-27T11:25:43.487Z,969.32
2019-01-27T11:26:43.597Z,969.33
2019-01-27T11:27:43.460Z,969.33
2019-01-27T11:28:43.447Z,969.25
2019-01-27T11:29:43.431Z,969.28
2019-01-27T11:30:43.418Z,969.23
2019-01-27T11:31:43.406Z,969.23
2019-01-27T11:32:43.390Z,969.19
2019-01-27T11:33:43.382Z,969.18
2019-01-27T11:34:43.364Z,969.27
2019-01-27T11:35:43.350Z,969.20
2019-01-27T11:36:43.338Z,969.07
2019-01-27T11:37:43.343Z,969.21
2019-01-27T11:38:43.318Z,969.19
2019-01-27T11:39:43.298Z,969.18
2019-01-27T11:40:43.282Z,969.20
2019-01-27T11:41:43.268Z,969.07
2019-01-27T11:42:43.259Z,969.20
2019-01-27T11:43:43.242Z,969.20
2019-01-27T11:44:43.228Z,969.08
2019-01-27T11:45:43.216Z,969.11
2019-01-27T11:46:43.202Z,969.11
2019-01-27T11:47:43.189Z,969.11
2019-01-27T11:48:43.176Z,969.14
2019-01-27T11:49:43.185Z,969.05
2019-01-27T11:50:43.147Z,969.02
2019-01-27T11:51:43.135Z,969.04
2019-01-27T11:52:43.121Z,969.08
2019-01-27T11:53:43.107Z,969.04
2019-01-27T11:54:43.097Z,969.06
2019-01-27T11:55:43.085Z,969.07
2019-01-27T11:56:43.069Z,969.04
2019-01-27T11:57:43.055Z,969.05
2019-01-27T11:58:43.042Z,969.08
2019-01-27T11:59:43.074Z,969.11
2019-01-27T12:00:43.017Z,969.07
2019-01-27T12:01:43.002Z,969.01
2019-01-27T12:02:46.636Z,969.04
2019-01-27T12:03:42.976Z,969.00
2019-01-27T12:04:42.963Z,968.99
2019-01-27T12:05:42.949Z,969.07
2019-01-27T12:06:42.937Z,969.03
2019-01-27T12:07:42.923Z,969.02
2019-01-27T12:08:42.909Z,968.99
2019-01-27T12:09:42.897Z,968.97
2019-01-27T12:10:42.883Z,968.89
2019-01-27T12:11:42.870Z,968.95
2019-01-27T12:12:42.859Z,968.94
2019-01-27T12:13:42.843Z,968.94
2019-01-27T12:14:42.830Z,968.86
2019-01-27T12:15:42.818Z,968.89
2019-01-27T12:16:42.806Z,968.84
2019-01-27T12:17:42.792Z,968.87
2019-01-27T12:18:42.779Z,968.94
2019-01-27T12:19:42.767Z,968.84
2019-01-27T12:20:42.754Z,968.88
2019-01-27T12:21:42.741Z,968.86
2019-01-27T12:22:42.729Z,968.83
2019-01-27T12:23:42.715Z,968.89
2019-01-27T12:24:42.705Z,968.97
2019-01-27T12:25:42.691Z,968.82
2019-01-27T12:26:42.676Z,968.90
2019-01-27T12:27:42.663Z,968.91
2019-01-27T12:28:42.653Z,968.90